Time;durP1;ratioP1;P1;durP2;ratioP2;P2;SDS_P1;SDS_P2;PMS_P1;PMS_P2;Temp;Humidity;BMP_temperature;BMP_pressure;BME280_temperature;BME280_humidity;BME280_pressure;Samples;Min_cycle;Max_cycle;Signal;HPM_P1;HPM_P2
2022/03/30 00:01:05;;;;;;;33.03;23.53;;;13.40;72.80;;;;;;5032086;28;20444;-83
2022/03/30 00:03:34;;;;;;;28.43;22.57;;;13.30;73.60;;;;;;5032120;28;20455;-85
2022/03/30 00:06:12;;;;;;;30.13;22.70;;;13.30;74.40;;;;;;5038130;28;20547;-84
2022/03/30 00:08:51;;;;;;;33.50;23.93;;;13.30;74.10;;;;;;5052768;28;20450;-84
2022/03/30 00:11:20;;;;;;;31.50;22.43;;;13.40;73.80;;;;;;5035159;28;20491;-82
2022/03/30 00:13:46;;;;;;;31.13;23.07;;;13.20;74.10;;;;;;5027398;28;20466;-84
2022/03/30 00:16:21;;;;;;;29.27;22.67;;;13.10;76.10;;;;;;5026040;28;20481;-83
2022/03/30 00:18:55;;;;;;;35.10;22.70;;;13.10;75.60;;;;;;5026232;28;20555;-84
2022/03/30 00:21:26;;;;;;;31.50;23.00;;;13.20;75.00;;;;;;5029028;28;20444;-84
2022/03/30 00:23:57;;;;;;;31.00;22.20;;;13.10;74.10;;;;;;5042636;28;20463;-82
2022/03/30 00:26:32;;;;;;;28.40;21.90;;;13.20;73.80;;;;;;5043761;28;20526;-83
2022/03/30 00:29:13;;;;;;;27.97;22.20;;;13.20;73.50;;;;;;5040609;28;20463;-83
2022/03/30 00:31:42;;;;;;;28.57;22.30;;;13.30;73.20;;;;;;5042015;28;20472;-85
2022/03/30 00:34:11;;;;;;;30.70;22.20;;;13.30;73.50;;;;;;5058596;28;20463;-81
2022/03/30 00:36:40;;;;;;;30.83;21.97;;;13.30;72.50;;;;;;5042837;28;20547;-85
2022/03/30 00:39:13;;;;;;;30.60;24.13;;;13.30;73.10;;;;;;5043848;28;20460;-82
2022/03/30 00:41:42;;;;;;;32.60;21.57;;;13.50;72.30;;;;;;5045151;28;20464;-85
2022/03/30 00:44:21;;;;;;;29.07;21.97;;;13.40;71.30;;;;;;5046545;28;20445;-83
2022/03/30 00:46:50;;;;;;;27.93;20.83;;;13.20;71.60;;;;;;5063029;28;20464;-84
2022/03/30 00:49:23;;;;;;;33.20;21.83;;;13.20;71.30;;;;;;5044440;28;20516;-83
2022/03/30 00:51:53;;;;;;;28.80;22.03;;;13.00;71.30;;;;;;5058698;28;20490;-83
2022/03/30 00:54:23;;;;;;;28.13;20.70;;;12.80;72.00;;;;;;5039398;28;20464;-83
2022/03/30 00:56:52;;;;;;;28.87;22.37;;;13.00;72.60;;;;;;5039271;28;20503;-84
2022/03/30 00:59:27;;;;;;;34.73;23.43;;;13.10;72.40;;;;;;5031052;28;20523;-86
2022/03/30 01:01:59;;;;;;;30.80;22.70;;;13.10;73.00;;;;;;5030947;28;20472;-84
2022/03/30 01:04:33;;;;;;;30.80;21.53;;;13.00;73.80;;;;;;5046747;28;22447;-84
2022/03/30 01:07:00;;;;;;;29.00;22.50;;;13.00;72.90;;;;;;5032242;28;20479;-83
2022/03/30 01:09:29;;;;;;;28.47;21.60;;;12.90;74.10;;;;;;5024420;28;20464;-83
2022/03/30 01:11:57;;;;;;;32.47;23.30;;;12.90;73.80;;;;;;5023496;28;20484;-83
2022/03/30 01:14:25;;;;;;;32.70;20.47;;;12.90;73.80;;;;;;5025549;28;20468;-83
2022/03/30 01:16:52;;;;;;;34.47;21.60;;;12.90;73.70;;;;;;5055422;28;20479;-85
2022/03/30 01:19:20;;;;;;;26.97;21.83;;;12.90;73.70;;;;;;5037912;28;20430;-85
2022/03/30 01:21:57;;;;;;;30.43;20.10;;;13.00;73.80;;;;;;5043488;28;20440;-85
2022/03/30 01:24:30;;;;;;;30.53;21.00;;;13.00;73.80;;;;;;5041196;28;20443;-84
2022/03/30 01:26:59;;;;;;;31.10;22.30;;;13.00;73.10;;;;;;5059578;28;20609;-83
2022/03/30 01:32:26;;;;;;;28.63;20.80;;;12.80;73.40;;;;;;5061957;28;20472;-82
2022/03/30 01:35:00;;;;;;;26.87;19.40;;;12.70;74.00;;;;;;5042470;28;20432;-83
2022/03/30 01:37:37;;;;;;;24.70;19.50;;;12.70;74.00;;;;;;5055548;28;20452;-84
2022/03/30 01:40:10;;;;;;;29.57;21.10;;;12.90;73.60;;;;;;5038177;28;20467;-85
2022/03/30 01:42:40;;;;;;;28.17;22.70;;;12.80;73.00;;;;;;5046505;28;20467;-83
2022/03/30 01:45:15;;;;;;;30.37;22.27;;;12.70;74.10;;;;;;5045127;28;20512;-83
2022/03/30 01:47:57;;;;;;;27.00;21.20;;;12.50;75.70;;;;;;5032163;28;20486;-86
2022/03/30 01:50:26;;;;;;;30.90;20.70;;;12.50;78.30;;;;;;5024868;28;20463;-84
2022/03/30 01:53:03;;;;;;;27.13;20.37;;;12.60;79.60;;;;;;5026232;28;20511;-85
2022/03/30 01:55:41;;;;;;;25.90;20.00;;;12.60;79.20;;;;;;5025945;28;20541;-85
2022/03/30 01:58:18;;;;;;;28.10;21.53;;;12.60;79.80;;;;;;5022800;28;20451;-83
2022/03/30 02:00:49;;;;;;;30.23;21.10;;;12.60;79.30;;;;;;5040725;28;20460;-83
2022/03/30 02:03:21;;;;;;;33.43;20.63;;;12.50;79.50;;;;;;5040459;28;20969;-85
2022/03/30 02:05:52;;;;;;;28.40;20.77;;;12.60;80.30;;;;;;5041213;28;20841;-84
2022/03/30 02:08:46;;;;;;;23.90;21.00;;;12.80;79.10;;;;;;5025773;28;20947;-84
2022/03/30 02:11:17;;;;;;;29.77;21.90;;;12.80;78.40;;;;;;5027847;28;20781;-84
2022/03/30 02:13:52;;;;;;;32.70;22.40;;;12.80;77.90;;;;;;5028642;28;20962;-83
2022/03/30 02:16:33;;;;;;;27.93;21.77;;;12.60;78.40;;;;;;5031101;28;20480;-83
2022/03/30 02:19:11;;;;;;;27.20;20.27;;;12.70;79.20;;;;;;5029288;28;20462;-86
2022/03/30 02:21:51;;;;;;;26.80;19.70;;;12.60;79.00;;;;;;5029656;28;20460;-84
2022/03/30 02:24:36;;;;;;;27.07;20.97;;;12.50;79.30;;;;;;5029162;28;21359;-85
2022/03/30 02:27:06;;;;;;;29.57;21.80;;;12.40;79.70;;;;;;5029235;28;20549;-86
2022/03/30 02:29:52;;;;;;;26.43;20.30;;;12.40;79.80;;;;;;5030228;28;20962;-86
2022/03/30 02:32:27;;;;;;;26.93;20.27;;;12.50;79.80;;;;;;5029309;28;20569;-85
2022/03/30 02:34:58;;;;;;;28.40;22.33;;;12.30;81.20;;;;;;5045230;28;20464;-82
2022/03/30 02:37:34;;;;;;;30.70;21.93;;;12.30;81.50;;;;;;5029836;28;20548;-83
2022/03/30 02:40:07;;;;;;;30.60;21.83;;;12.30;81.10;;;;;;5045506;28;21119;-84
2022/03/30 02:42:39;;;;;;;27.17;20.20;;;12.30;82.00;;;;;;5030555;28;20565;-84
2022/03/30 02:45:08;;;;;;;30.23;22.83;;;12.50;81.50;;;;;;5032947;28;20538;-85
2022/03/30 02:50:45;;;;;;;31.10;22.07;;;12.40;81.40;;;;;;5050465;28;20461;-83
2022/03/30 02:53:19;;;;;;;26.30;20.53;;;12.30;81.40;;;;;;5031385;28;20483;-85
2022/03/30 02:55:53;;;;;;;24.07;19.73;;;12.30;82.90;;;;;;5043114;28;21036;-84
2022/03/30 02:58:31;;;;;;;31.10;21.13;;;12.30;82.40;;;;;;5029982;28;20480;-84
2022/03/30 03:01:06;;;;;;;33.47;20.43;;;12.30;81.70;;;;;;5048572;28;20528;-84
2022/03/30 03:03:42;;;;;;;25.93;20.37;;;12.30;81.80;;;;;;5030870;28;20484;-84
2022/03/30 03:06:14;;;;;;;29.63;20.03;;;12.10;82.20;;;;;;5048979;28;20503;-84
2022/03/30 03:08:59;;;;;;;31.93;21.50;;;12.00;82.40;;;;;;5031912;28;20452;-84
2022/03/30 03:11:33;;;;;;;31.40;22.30;;;12.10;83.90;;;;;;5035466;28;20486;-85
2022/03/30 03:14:09;;;;;;;32.37;23.07;;;12.10;83.70;;;;;;5031303;28;20459;-85
2022/03/30 03:16:42;;;;;;;30.80;22.77;;;12.30;83.10;;;;;;5031627;28;20468;-85
2022/03/30 03:19:33;;;;;;;29.23;20.43;;;12.20;82.10;;;;;;5030644;28;20456;-85
2022/03/30 03:22:10;;;;;;;26.83;20.53;;;12.10;83.50;;;;;;5031449;28;20460;-86
2022/03/30 03:24:48;;;;;;;30.93;21.90;;;11.80;83.90;;;;;;5032375;28;20465;-84
2022/03/30 03:27:17;;;;;;;26.10;21.80;;;11.90;84.90;;;;;;5051008;28;20491;-84
2022/03/30 03:30:00;;;;;;;28.17;21.30;;;11.90;85.60;;;;;;5036658;28;20866;-83
2022/03/30 03:32:33;;;;;;;28.20;20.33;;;11.90;86.10;;;;;;5028399;28;20480;-82
2022/03/30 03:35:12;;;;;;;27.07;20.63;;;12.10;86.60;;;;;;5030349;28;21508;-84
2022/03/30 03:37:46;;;;;;;31.17;21.50;;;12.00;85.70;;;;;;5028060;28;20468;-84
2022/03/30 03:40:21;;;;;;;30.00;21.73;;;12.10;84.20;;;;;;5044331;28;20489;-84
2022/03/30 03:42:59;;;;;;;30.87;22.27;;;12.20;83.80;;;;;;5046815;28;20471;-83
2022/03/30 03:45:32;;;;;;;27.10;21.23;;;12.00;83.70;;;;;;5030381;28;20484;-82
2022/03/30 03:48:03;;;;;;;27.00;20.90;;;12.00;84.50;;;;;;5028338;28;20558;-82
2022/03/30 03:50:46;;;;;;;28.97;21.57;;;11.80;85.80;;;;;;5029104;28;20518;-84
2022/03/30 03:53:27;;;;;;;31.83;20.33;;;11.80;87.10;;;;;;5027588;28;20496;-81
2022/03/30 03:56:12;;;;;;;33.73;22.93;;;11.70;87.20;;;;;;5026166;28;20472;-83
2022/03/30 03:58:52;;;;;;;30.57;21.53;;;11.80;87.00;;;;;;5029167;28;20464;-84
2022/03/30 04:01:31;;;;;;;27.97;21.23;;;11.80;87.40;;;;;;5029544;28;20522;-82
2022/03/30 04:04:33;;;;;;;26.50;19.63;;;11.80;88.00;;;;;;5033145;28;20479;-85
2022/03/30 04:07:15;;;;;;;31.37;20.63;;;11.70;88.00;;;;;;5025940;28;22224;-84
2022/03/30 04:10:03;;;;;;;26.40;19.50;;;11.80;88.90;;;;;;5028978;28;20460;-85
2022/03/30 04:12:50;;;;;;;31.10;22.60;;;11.90;88.80;;;;;;5028985;28;20483;-85
2022/03/30 04:15:45;;;;;;;26.13;21.03;;;11.90;88.00;;;;;;5030928;28;20481;-84
2022/03/30 04:18:42;;;;;;;29.50;22.37;;;12.30;85.50;;;;;;5028669;28;20457;-84
2022/03/30 04:21:27;;;;;;;29.10;20.20;;;12.20;83.10;;;;;;5041321;28;20468;-84
2022/03/30 04:24:28;;;;;;;29.83;20.37;;;12.00;84.00;;;;;;5030124;28;20449;-83
2022/03/30 04:27:04;;;;;;;31.43;20.10;;;11.90;85.00;;;;;;5027261;28;20476;-83
2022/03/30 04:29:37;;;;;;;27.37;21.00;;;11.80;85.90;;;;;;5027533;28;20484;-85
2022/03/30 04:32:07;;;;;;;31.57;23.37;;;12.10;84.30;;;;;;5045240;28;20488;-83
2022/03/30 04:34:53;;;;;;;;;;;;;;;;;;;;;
2022/03/30 04:37:44;;;;;;;27.23;19.30;;;11.90;83.80;;;;;;4984832;28;20560;-83
2022/03/30 04:40:22;;;;;;;30.13;22.33;;;11.70;84.80;;;;;;4971717;28;20593;-85
2022/03/30 04:43:04;;;;;;;28.73;21.37;;;11.70;85.40;;;;;;4986221;28;20459;-85
2022/03/30 04:45:38;;;;;;;27.73;20.83;;;11.90;86.10;;;;;;4991804;28;20484;-83
2022/03/30 04:48:24;;;;;;;29.60;20.33;;;12.10;84.40;;;;;;4988902;28;20458;-83
2022/03/30 04:50:56;;;;;;;27.53;21.30;;;12.10;82.40;;;;;;4986388;28;20469;-83
2022/03/30 04:53:40;;;;;;;30.20;21.63;;;11.90;82.50;;;;;;4974223;28;20606;-85
2022/03/30 04:56:18;;;;;;;31.90;20.00;;;11.90;82.30;;;;;;4976723;28;20548;-83
2022/03/30 04:58:49;;;;;;;30.33;21.30;;;11.80;82.90;;;;;;4976560;28;20487;-82
2022/03/30 05:01:30;;;;;;;27.80;21.40;;;11.60;84.20;;;;;;4976774;28;20477;-83
2022/03/30 05:04:14;;;;;;;35.03;23.97;;;11.80;85.70;;;;;;4975741;28;20999;-83
2022/03/30 05:06:44;;;;;;;31.73;22.37;;;11.90;85.70;;;;;;4974131;28;20487;-85
2022/03/30 05:09:14;;;;;;;30.73;23.20;;;12.00;86.40;;;;;;4983381;28;21067;-84
2022/03/30 05:11:57;;;;;;;32.50;22.80;;;12.10;84.70;;;;;;4974532;28;20803;-85
2022/03/30 05:14:48;;;;;;;37.97;24.37;;;11.90;85.10;;;;;;4977111;28;20960;-84
2022/03/30 05:17:27;;;;;;;29.70;22.17;;;11.90;85.70;;;;;;4987332;28;20499;-84
2022/03/30 05:20:08;;;;;;;40.40;25.30;;;12.10;85.90;;;;;;4991545;28;20985;-82
2022/03/30 05:22:40;;;;;;;27.77;22.40;;;11.90;86.20;;;;;;4987317;28;20458;-85
2022/03/30 05:25:15;;;;;;;30.43;22.53;;;11.70;87.00;;;;;;4980604;28;20483;-86
2022/03/30 05:27:47;;;;;;;27.30;20.57;;;11.70;87.90;;;;;;4980929;28;20475;-85
2022/03/30 05:30:44;;;;;;;34.60;21.43;;;12.00;87.10;;;;;;4983170;28;20995;-83
2022/03/30 05:33:40;;;;;;;31.93;21.97;;;11.90;85.80;;;;;;4973820;28;20615;-84
2022/03/30 05:36:35;;;;;;;28.83;20.63;;;11.90;85.20;;;;;;5089392;22;20499;-83
2022/03/30 05:39:14;;;;;;;27.67;20.37;;;11.90;85.40;;;;;;5021835;28;20459;-86
2022/03/30 05:41:42;;;;;;;32.77;22.53;;;11.90;86.10;;;;;;5043183;28;21573;-86
2022/03/30 05:44:18;;;;;;;34.97;22.10;;;12.20;84.20;;;;;;5041763;28;20511;-85
2022/03/30 05:46:46;;;;;;;29.67;21.93;;;11.90;84.10;;;;;;5049059;28;20491;-83
2022/03/30 05:49:28;;;;;;;32.10;22.23;;;11.70;85.70;;;;;;5032799;28;20471;-82
2022/03/30 05:52:10;;;;;;;29.17;21.53;;;11.60;86.90;;;;;;5030033;28;20856;-84
2022/03/30 05:54:44;;;;;;;30.40;21.60;;;11.60;87.40;;;;;;5046559;28;20448;-84
2022/03/30 05:57:16;;;;;;;33.37;23.37;;;11.60;88.20;;;;;;5026344;28;20457;-87
2022/03/30 05:59:58;;;;;;;32.90;23.20;;;11.60;88.30;;;;;;5043012;28;20597;-86
2022/03/30 06:02:28;;;;;;;29.37;22.53;;;11.60;88.30;;;;;;5033055;28;20460;-84
2022/03/30 06:05:05;;;;;;;36.47;22.43;;;11.70;88.30;;;;;;5044221;28;20598;-84
2022/03/30 06:08:01;;;;;;;33.60;21.47;;;11.70;87.90;;;;;;5032625;28;20980;-87
2022/03/30 06:10:34;;;;;;;33.13;22.63;;;11.60;87.80;;;;;;5023569;28;20494;-86
2022/03/30 06:13:39;;;;;;;33.33;22.33;;;11.50;88.10;;;;;;5035909;28;20474;-85
2022/03/30 06:16:09;;;;;;;35.40;23.80;;;11.50;88.50;;;;;;5047157;28;20481;-85
2022/03/30 06:18:39;;;;;;;34.60;23.23;;;11.50;88.50;;;;;;5048018;28;20509;-85
2022/03/30 06:21:15;;;;;;;42.33;26.60;;;11.50;87.80;;;;;;5047856;28;21000;-85
2022/03/30 06:23:55;;;;;;;32.10;22.70;;;11.50;87.90;;;;;;5033835;28;20456;-83
2022/03/30 06:26:24;;;;;;;33.63;22.60;;;11.40;88.00;;;;;;5031651;28;20546;-84
2022/03/30 06:28:58;;;;;;;28.17;22.60;;;11.50;88.40;;;;;;5027361;28;20651;-86
2022/03/30 06:31:29;;;;;;;30.33;23.30;;;11.50;88.50;;;;;;5030438;28;20459;-85
2022/03/30 06:33:59;;;;;;;34.37;24.43;;;11.70;88.70;;;;;;5051618;28;20488;-84
2022/03/30 06:36:37;;;;;;;34.03;22.73;;;11.90;88.00;;;;;;5057896;28;20581;-86
2022/03/30 06:39:15;;;;;;;34.63;23.30;;;12.10;86.20;;;;;;5040609;28;20456;-85
2022/03/30 06:41:56;;;;;;;28.47;21.60;;;12.20;85.80;;;;;;5046186;28;20479;-85
2022/03/30 06:44:28;;;;;;;36.10;23.97;;;12.30;85.10;;;;;;5045322;28;20449;-84
2022/03/30 06:47:18;;;;;;;37.83;25.30;;;12.60;83.90;;;;;;5045102;28;20563;-86
2022/03/30 06:49:58;;;;;;;34.80;22.73;;;12.70;83.10;;;;;;5047088;28;20476;-83
2022/03/30 06:52:27;;;;;;;32.30;22.70;;;13.40;79.40;;;;;;5023816;28;20550;-83
2022/03/30 06:55:07;;;;;;;30.37;21.80;;;13.50;79.30;;;;;;5026367;28;20498;-85
2022/03/30 06:57:37;;;;;;;30.53;22.57;;;13.60;78.10;;;;;;5025443;28;20468;-84
2022/03/30 07:00:14;;;;;;;34.43;24.30;;;13.50;77.60;;;;;;5025299;28;20522;-84
2022/03/30 07:02:52;;;;;;;31.97;22.27;;;13.60;76.70;;;;;;5025878;28;20480;-81
2022/03/30 07:05:28;;;;;;;37.60;24.10;;;13.30;76.80;;;;;;5026151;28;20535;-83
2022/03/30 07:10:58;;;;;;;33.67;22.77;;;13.30;76.80;;;;;;5041806;28;21240;-85
2022/03/30 07:13:32;;;;;;;36.40;24.43;;;13.30;77.50;;;;;;5027238;28;20579;-84
2022/03/30 07:16:04;;;;;;;32.27;23.03;;;13.40;75.70;;;;;;5039722;28;20480;-83
2022/03/30 07:18:36;;;;;;;37.67;23.97;;;13.30;76.00;;;;;;5040474;28;20536;-84
2022/03/30 07:21:03;;;;;;;39.00;23.90;;;13.30;77.20;;;;;;5042422;28;20504;-83
2022/03/30 07:23:30;;;;;;;33.37;23.40;;;13.60;77.50;;;;;;5024379;28;20467;-84
2022/03/30 07:26:08;;;;;;;31.37;22.60;;;14.00;75.40;;;;;;5028485;28;20503;-86
2022/03/30 07:28:46;;;;;;;32.37;22.83;;;14.00;74.80;;;;;;5024490;28;21036;-84
2022/03/30 07:31:18;;;;;;;35.13;23.57;;;14.10;73.10;;;;;;5044048;28;20514;-86
2022/03/30 07:33:59;;;;;;;31.87;22.53;;;14.20;71.90;;;;;;5041351;28;20488;-85
2022/03/30 07:36:32;;;;;;;28.60;22.43;;;13.90;71.40;;;;;;5028280;28;20483;-84
2022/03/30 07:39:06;;;;;;;30.43;22.50;;;13.80;71.20;;;;;;5027029;28;20461;-86
2022/03/30 07:41:40;;;;;;;31.60;22.07;;;13.60;70.80;;;;;;5028425;28;20556;-85
2022/03/30 07:44:12;;;;;;;29.73;21.10;;;13.40;71.90;;;;;;5046222;28;20464;-87
2022/03/30 07:46:48;;;;;;;28.70;22.10;;;13.50;71.50;;;;;;5030895;28;20490;-85
2022/03/30 07:49:23;;;;;;;30.73;22.03;;;13.50;70.90;;;;;;5028952;28;20455;-85
2022/03/30 07:52:00;;;;;;;32.10;22.43;;;13.50;70.90;;;;;;5031671;28;20484;-86
2022/03/30 07:54:28;;;;;;;31.33;22.10;;;13.60;71.50;;;;;;5035007;28;20898;-85
2022/03/30 07:57:06;;;;;;;31.20;22.97;;;14.20;71.00;;;;;;5038970;28;20510;-86
2022/03/30 07:59:35;;;;;;;28.07;21.40;;;14.60;68.40;;;;;;5036335;28;20543;-86
2022/03/30 08:02:10;;;;;;;28.03;20.33;;;15.20;66.60;;;;;;5041128;28;20486;-85
2022/03/30 08:04:43;;;;;;;29.53;21.00;;;16.10;63.50;;;;;;5028906;28;20468;-85
2022/03/30 08:07:16;;;;;;;28.23;21.43;;;16.00;61.50;;;;;;5032290;28;20958;-85
2022/03/30 08:09:45;;;;;;;32.63;21.70;;;15.50;61.90;;;;;;5042158;28;20552;-87
2022/03/30 08:12:15;;;;;;;28.53;21.47;;;15.10;63.30;;;;;;5031541;28;20467;-86
2022/03/30 08:14:45;;;;;;;29.77;22.93;;;14.90;64.10;;;;;;5043188;28;20460;-86
2022/03/30 08:17:15;;;;;;;32.93;21.40;;;14.60;64.60;;;;;;5027824;28;20454;-85
2022/03/30 08:19:47;;;;;;;30.60;22.20;;;14.50;65.50;;;;;;5028586;28;20541;-82
2022/03/30 08:22:30;;;;;;;24.67;18.50;;;14.40;65.90;;;;;;5026161;28;20475;-86
2022/03/30 08:25:10;;;;;;;29.10;21.50;;;14.70;62.20;;;;;;5036849;28;20502;-85
2022/03/30 08:27:41;;;;;;;26.10;21.70;;;15.50;61.20;;;;;;5044451;28;20462;-84
2022/03/30 08:30:10;;;;;;;28.27;19.60;;;15.80;60.50;;;;;;5043559;28;20903;-85
2022/03/30 08:32:40;;;;;;;31.47;22.20;;;17.70;59.30;;;;;;5028319;28;20507;-83
2022/03/30 08:35:12;;;;;;;25.87;20.93;;;19.40;54.90;;;;;;5037147;28;20476;-85
2022/03/30 08:37:45;;;;;;;25.80;19.90;;;19.50;51.50;;;;;;5025492;28;20507;-83
2022/03/30 08:40:12;;;;;;;26.10;20.93;;;18.40;51.90;;;;;;5034642;28;20465;-85
2022/03/30 08:42:48;;;;;;;26.20;20.17;;;17.90;52.40;;;;;;5037845;28;20476;-85
2022/03/30 08:45:18;;;;;;;23.23;19.27;;;17.00;53.40;;;;;;5022273;28;20492;-84
2022/03/30 08:47:50;;;;;;;26.80;19.13;;;16.40;54.70;;;;;;5040965;28;20532;-85
2022/03/30 08:50:23;;;;;;;26.37;18.70;;;16.20;54.40;;;;;;5023715;28;20464;-85
2022/03/30 08:52:58;;;;;;;26.60;19.27;;;16.00;54.60;;;;;;5040205;28;20591;-85
2022/03/30 08:55:25;;;;;;;24.73;18.20;;;15.60;55.50;;;;;;5028200;28;20567;-85
2022/03/30 08:58:00;;;;;;;25.57;18.57;;;15.00;56.50;;;;;;5034015;28;20456;-83
2022/03/30 09:00:34;;;;;;;23.90;17.30;;;15.20;57.60;;;;;;5022254;28;20808;-84
2022/03/30 09:03:07;;;;;;;23.13;16.53;;;15.20;56.90;;;;;;5033340;28;20483;-82
2022/03/30 09:05:46;;;;;;;23.87;18.07;;;15.40;55.70;;;;;;5035397;28;22733;-85
2022/03/30 09:08:27;;;;;;;24.13;17.47;;;15.20;55.30;;;;;;5023309;28;20475;-85
2022/03/30 09:11:11;;;;;;;24.13;17.17;;;15.20;55.80;;;;;;5032973;28;20471;-83
2022/03/30 09:14:05;;;;;;;19.80;14.93;;;15.50;55.20;;;;;;5031615;28;20485;-83
2022/03/30 09:16:57;;;;;;;27.40;16.37;;;15.30;54.50;;;;;;5039378;28;20483;-85
2022/03/30 09:19:36;;;;;;;20.13;15.90;;;15.60;54.20;;;;;;5039597;28;20532;-84
2022/03/30 09:22:13;;;;;;;22.60;17.53;;;15.50;54.20;;;;;;5041648;28;21342;-84
2022/03/30 09:24:45;;;;;;;20.07;15.77;;;15.70;54.20;;;;;;5029679;28;20527;-84
2022/03/30 09:27:44;;;;;;;20.80;15.80;;;15.60;54.60;;;;;;5031848;28;20487;-82
2022/03/30 09:30:19;;;;;;;20.90;15.93;;;15.60;54.10;;;;;;5026733;28;20460;-85
2022/03/30 09:33:03;;;;;;;19.63;15.87;;;15.50;53.70;;;;;;5020572;28;20543;-85
2022/03/30 09:35:41;;;;;;;22.80;17.27;;;15.60;54.00;;;;;;4996284;28;20526;-85
2022/03/30 09:38:28;;;;;;;22.10;16.73;;;15.30;53.90;;;;;;5024554;28;20457;-85
2022/03/30 09:41:15;;;;;;;21.70;16.13;;;15.50;54.30;;;;;;5027969;28;20483;-87
2022/03/30 09:43:46;;;;;;;19.20;14.03;;;15.50;53.40;;;;;;5020880;28;20500;-86
2022/03/30 09:46:16;;;;;;;18.73;13.30;;;15.40;53.10;;;;;;5021373;28;20476;-85
2022/03/30 09:48:54;;;;;;;12.90;10.90;;;15.20;52.80;;;;;;5032932;28;20465;-86
2022/03/30 09:51:31;;;;;;;14.77;11.40;;;16.60;47.70;;;;;;5023454;28;20865;-86
2022/03/30 09:54:09;;;;;;;16.23;12.63;;;17.70;46.10;;;;;;5039958;28;20487;-85
2022/03/30 09:57:10;;;;;;;20.67;13.50;;;19.40;42.70;;;;;;5027419;28;20491;-87
2022/03/30 09:59:56;;;;;;;21.00;13.53;;;20.00;42.70;;;;;;5037891;28;20610;-85
2022/03/30 10:02:24;;;;;;;16.10;13.37;;;20.80;42.80;;;;;;5037941;28;20474;-85
2022/03/30 10:04:51;;;;;;;16.90;12.90;;;20.80;41.40;;;;;;5020811;28;20475;-85
2022/03/30 10:07:22;;;;;;;20.90;12.33;;;20.40;40.80;;;;;;5024116;28;21198;-86
2022/03/30 10:09:56;;;;;;;16.80;12.60;;;19.60;40.40;;;;;;5027395;28;20941;-84
2022/03/30 11:14:31;;;;;;;;;;;;;;;;;;;;;
2022/03/30 12:34:34;;;;;;;17.80;12.73;;;20.60;40.40;;;;;;5027458;28;20468;-83
2022/03/30 12:37:49;;;;;;;18.30;14.63;;;20.30;39.80;;;;;;4984887;28;20483;-86
2022/03/30 12:41:39;;;;;;;13.70;12.30;;;20.80;39.30;;;;;;4975702;28;20457;-85
2022/03/30 12:45:39;;;;;;;;;;;;;;;;;;;;;
2022/03/30 12:53:16;;;;;;;;;;;;;;;;;;;;;
2022/03/30 13:41:16;;;;;;;16.17;10.60;;;19.10;40.50;;;;;;5000712;28;20495;-85
2022/03/30 13:44:15;;;;;;;14.03;11.20;;;19.10;40.70;;;;;;5002849;28;20721;-85
2022/03/30 13:47:03;;;;;;;13.80;10.70;;;18.40;40.20;;;;;;5003121;28;20463;-86
2022/03/30 13:50:07;;;;;;;;;;;;;;;;;;;;;
2022/03/30 13:53:10;;;;;;;13.93;10.23;;;18.10;40.70;;;;;;5003114;28;20452;-86
2022/03/30 13:59:19;;;;;;;16.27;9.93;;;18.10;39.60;;;;;;5002061;28;20481;-85
2022/03/30 14:02:57;;;;;;;10.87;9.13;;;18.30;39.20;;;;;;4984008;28;20464;-85
2022/03/30 14:06:19;;;;;;;12.90;10.93;;;18.40;39.70;;;;;;4971963;28;20536;-84
2022/03/30 14:09:55;;;;;;;12.63;9.83;;;18.30;40.30;;;;;;4982272;28;20926;-84
2022/03/30 14:12:39;;;;;;;12.97;10.63;;;18.30;40.60;;;;;;4960860;28;20453;-84
2022/03/30 14:19:25;;;;;;;14.57;11.00;;;18.60;40.80;;;;;;4992880;28;20589;-86
2022/03/30 14:22:14;;;;;;;13.67;10.67;;;19.00;39.70;;;;;;5009028;28;20523;-84
2022/03/30 14:25:28;;;;;;;12.50;10.53;;;19.10;39.60;;;;;;4992326;28;21056;-85
2022/03/30 14:29:01;;;;;;;11.83;10.30;;;19.10;39.90;;;;;;5008603;28;20423;-86
2022/03/30 14:32:14;;;;;;;12.97;9.43;;;18.60;40.50;;;;;;4979315;28;20450;-85
2022/03/30 14:35:29;;;;;;;13.63;10.23;;;18.80;40.20;;;;;;4988947;28;20538;-83
2022/03/30 14:38:46;;;;;;;;;;;;;;;;;;;;;
2022/03/30 14:42:17;;;;;;;12.47;10.20;;;17.90;41.20;;;;;;4972388;28;20537;-85
2022/03/30 14:45:36;;;;;;;11.80;9.73;;;17.70;41.40;;;;;;4999199;28;20458;-82
2022/03/30 14:49:00;;;;;;;20.37;11.47;;;17.90;40.80;;;;;;4987231;28;20467;-86
2022/03/30 14:51:55;;;;;;;15.87;10.40;;;17.70;41.00;;;;;;5011859;28;20521;-86
2022/03/30 14:55:00;;;;;;;14.00;10.97;;;17.60;41.20;;;;;;4991722;28;20491;-87
2022/03/30 14:57:56;;;;;;;11.03;9.33;;;17.70;42.20;;;;;;4982684;28;20454;-85
2022/03/30 15:01:24;;;;;;;14.47;9.97;;;17.70;42.40;;;;;;4934773;29;20630;-86
2022/03/30 15:05:14;;;;;;;;;;;;;;;;;;;;;
2022/03/30 15:08:55;;;;;;;12.13;9.93;;;17.50;42.50;;;;;;4939683;28;20464;-86
2022/03/30 15:19:23;;;;;;;11.60;9.17;;;17.60;40.50;;;;;;4941639;29;20521;-85
2022/03/30 15:22:33;;;;;;;;;;;;;;;;;;;;;
2022/03/30 15:28:52;;;;;;;14.60;10.17;;;17.10;41.70;;;;;;4940976;29;21795;-87
2022/03/30 15:31:58;;;;;;;11.07;9.37;;;17.10;42.70;;;;;;4890593;29;20455;-84
2022/03/30 15:38:27;;;;;;;9.77;8.83;;;17.00;42.20;;;;;;4906335;29;20471;-85
2022/03/30 15:45:45;;;;;;;11.03;8.87;;;17.10;43.20;;;;;;4916456;29;20450;-83
2022/03/30 15:53:07;;;;;;;11.93;9.63;;;16.80;43.50;;;;;;4857457;29;20498;-85
2022/03/30 15:56:56;;;;;;;10.20;8.67;;;16.80;43.60;;;;;;4965615;22;21024;-84
2022/03/30 16:03:42;;;;;;;10.90;9.70;;;16.80;44.10;;;;;;5023550;28;20532;-84
2022/03/30 16:06:45;;;;;;;14.13;10.37;;;16.60;44.30;;;;;;4995207;28;20481;-86
2022/03/30 16:10:01;;;;;;;14.03;9.17;;;16.50;44.60;;;;;;4977363;28;20454;-88
2022/03/30 16:21:59;;;;;;;;;;;;;;;;;;;;;
2022/03/30 16:25:40;;;;;;;12.00;9.40;;;16.70;44.20;;;;;;5000872;28;20430;-86
2022/03/30 16:28:36;;;;;;;13.10;11.00;;;16.60;44.80;;;;;;4982519;28;20483;-85
2022/03/30 16:31:17;;;;;;;12.00;10.50;;;16.80;45.00;;;;;;4977570;28;20505;-85
2022/03/30 16:34:02;;;;;;;12.13;10.07;;;16.70;45.80;;;;;;4988508;28;20439;-85
2022/03/30 16:37:09;;;;;;;12.80;10.37;;;16.60;46.00;;;;;;4970282;28;20467;-86
2022/03/30 16:40:41;;;;;;;12.00;10.57;;;16.70;46.30;;;;;;4986252;28;20447;-86
2022/03/30 16:43:15;;;;;;;14.37;11.20;;;16.70;46.60;;;;;;4978550;28;20508;-85
2022/03/30 16:45:53;;;;;;;10.67;9.63;;;16.50;46.70;;;;;;5014911;28;20520;-85
2022/03/30 16:48:54;;;;;;;15.40;10.40;;;16.50;46.50;;;;;;5010050;28;20446;-87
2022/03/30 16:55:15;;;;;;;12.37;11.10;;;16.30;46.70;;;;;;5001554;28;20489;-86
2022/03/30 16:58:07;;;;;;;11.40;10.20;;;16.20;46.70;;;;;;5009257;28;20565;-86
2022/03/30 17:00:45;;;;;;;11.33;10.13;;;16.00;46.90;;;;;;5009194;28;20544;-86
2022/03/30 17:03:38;;;;;;;15.40;11.20;;;16.10;46.90;;;;;;5006175;28;20512;-86
2022/03/30 17:06:21;;;;;;;13.00;10.73;;;16.00;46.80;;;;;;5006476;28;20476;-86
2022/03/30 17:12:39;;;;;;;12.23;10.93;;;15.80;47.10;;;;;;4984817;28;20460;-84
2022/03/30 17:15:23;;;;;;;12.90;9.87;;;15.80;47.50;;;;;;5007983;23;20522;-85
2022/03/30 17:18:02;;;;;;;11.13;10.00;;;15.60;48.10;;;;;;4983943;28;20439;-85
2022/03/30 17:20:37;;;;;;;12.33;9.73;;;15.70;48.30;;;;;;4983730;28;20463;-84
2022/03/30 17:23:10;;;;;;;12.63;10.63;;;15.60;48.40;;;;;;4986770;28;20500;-85
2022/03/30 17:25:52;;;;;;;11.90;10.53;;;15.60;48.80;;;;;;4976423;28;20475;-86
2022/03/30 17:28:32;;;;;;;11.70;10.50;;;15.70;48.80;;;;;;4966482;28;20467;-83
2022/03/30 17:31:29;;;;;;;11.47;9.70;;;15.60;48.50;;;;;;4970572;28;20460;-83
2022/03/30 17:34:09;;;;;;;13.77;10.00;;;15.70;48.60;;;;;;4955294;28;20910;-83
2022/03/30 17:36:43;;;;;;;12.67;10.13;;;15.50;48.90;;;;;;4955609;28;20511;-82
2022/03/30 17:39:28;;;;;;;10.77;9.67;;;15.60;49.80;;;;;;4956494;28;20566;-85
2022/03/30 17:42:02;;;;;;;13.40;10.47;;;15.60;49.80;;;;;;4957414;28;20455;-83
2022/03/30 17:44:33;;;;;;;12.30;9.67;;;15.70;49.70;;;;;;4955287;28;20495;-85
2022/03/30 17:47:08;;;;;;;15.37;10.37;;;15.40;50.10;;;;;;4958001;28;20484;-84
2022/03/30 17:52:24;;;;;;;13.83;11.20;;;15.30;50.00;;;;;;4963508;28;20547;-80
2022/03/30 17:55:03;;;;;;;12.83;9.80;;;15.20;49.80;;;;;;4959208;28;20502;-82
2022/03/30 17:57:36;;;;;;;11.47;10.10;;;15.20;50.00;;;;;;4958786;28;20546;-83
2022/03/30 18:00:13;;;;;;;12.60;10.23;;;15.10;50.20;;;;;;4961228;28;20472;-83
2022/03/30 18:02:56;;;;;;;10.87;9.57;;;15.10;50.10;;;;;;4960530;28;20452;-85
2022/03/30 18:05:48;;;;;;;11.97;9.93;;;15.10;50.70;;;;;;4949805;28;20530;-82